createdAt,value
2019-05-07T00:00:04.703Z,4.00
2019-05-07T00:01:04.687Z,4.00
2019-05-07T00:02:04.783Z,4.00
2019-05-07T00:03:05.111Z,3.90
2019-05-07T00:04:05.201Z,3.90
2019-05-07T00:05:04.804Z,3.90
2019-05-07T00:06:04.931Z,3.90
2019-05-07T00:07:05.129Z,3.90
2019-05-07T00:08:04.731Z,3.90
2019-05-07T00:09:04.748Z,3.90
2019-05-07T00:10:05.101Z,3.90
2019-05-07T00:11:04.481Z,3.80
2019-05-07T00:12:05.034Z,3.80
2019-05-07T00:13:04.980Z,3.80
2019-05-07T00:14:04.379Z,3.80
2019-05-07T00:15:04.967Z,3.80
2019-05-07T00:16:04.393Z,3.80
2019-05-07T00:17:05.199Z,3.80
2019-05-07T00:18:04.290Z,3.80
2019-05-07T00:19:04.654Z,3.80
2019-05-07T00:20:05.000Z,3.80
2019-05-07T00:21:04.995Z,3.80
2019-05-07T00:22:05.155Z,3.80
2019-05-07T00:23:05.128Z,3.80
2019-05-07T00:24:04.177Z,3.80
2019-05-07T00:25:04.770Z,3.80
2019-05-07T00:26:04.713Z,3.80
2019-05-07T00:27:04.225Z,3.80
2019-05-07T00:28:04.361Z,3.80
2019-05-07T00:29:04.700Z,3.80
2019-05-07T00:30:05.377Z,3.80
2019-05-07T00:31:04.355Z,3.80
2019-05-07T00:32:04.422Z,3.80
2019-05-07T00:33:04.578Z,3.80
2019-05-07T00:34:04.837Z,3.80
2019-05-07T00:35:04.446Z,3.80
2019-05-07T00:36:04.694Z,3.80
2019-05-07T00:37:06.836Z,3.90
2019-05-07T00:38:04.730Z,3.90
2019-05-07T00:39:04.299Z,3.90
2019-05-07T00:40:04.663Z,3.90
2019-05-07T00:41:04.360Z,3.90
2019-05-07T00:42:04.533Z,3.90
2019-05-07T00:43:04.985Z,4.00
2019-05-07T00:44:05.021Z,4.00
2019-05-07T00:45:16.782Z,4.00
2019-05-07T00:46:04.726Z,4.00
2019-05-07T00:47:10.147Z,4.00
2019-05-07T00:48:04.912Z,4.10
2019-05-07T00:49:04.266Z,4.10
2019-05-07T00:50:04.364Z,4.10
2019-05-07T00:51:04.998Z,4.10
2019-05-07T00:52:05.135Z,4.10
2019-05-07T00:53:04.274Z,4.10
2019-05-07T00:54:04.551Z,4.10
2019-05-07T00:55:04.257Z,4.10
2019-05-07T00:56:04.856Z,4.20
2019-05-07T00:57:05.246Z,4.20
2019-05-07T00:58:04.215Z,4.20
2019-05-07T00:59:04.918Z,4.20
2019-05-07T01:00:04.549Z,4.20
2019-05-07T01:01:04.171Z,4.20
2019-05-07T01:02:04.658Z,4.20
2019-05-07T01:03:05.050Z,4.20
2019-05-07T01:04:04.781Z,4.20
2019-05-07T01:05:04.880Z,4.30
2019-05-07T01:06:04.417Z,4.30
2019-05-07T01:07:04.617Z,4.30
2019-05-07T01:08:04.811Z,4.30
2019-05-07T01:09:04.440Z,4.30
2019-05-07T01:10:04.626Z,4.30
2019-05-07T01:11:04.797Z,4.30
2019-05-07T01:12:04.949Z,4.30
2019-05-07T01:13:04.216Z,4.30
2019-05-07T01:14:04.335Z,4.40
2019-05-07T01:15:04.759Z,4.30
2019-05-07T01:16:05.186Z,4.40
2019-05-07T01:17:04.478Z,4.40
2019-05-07T01:18:04.677Z,4.40
2019-05-07T01:19:04.663Z,4.40
2019-05-07T01:20:05.098Z,4.40
2019-05-07T01:21:05.000Z,4.40
2019-05-07T01:22:04.716Z,4.40
2019-05-07T01:23:04.701Z,4.40
2019-05-07T01:24:04.154Z,4.40
2019-05-07T01:25:04.717Z,4.40
2019-05-07T01:26:04.190Z,4.40
2019-05-07T01:27:04.504Z,4.50
2019-05-07T01:28:04.937Z,4.50
2019-05-07T01:29:04.943Z,4.50
2019-05-07T01:30:05.074Z,4.50
2019-05-07T01:31:05.001Z,4.50
2019-05-07T01:32:04.238Z,4.50
2019-05-07T01:33:05.034Z,4.50
2019-05-07T01:34:05.044Z,4.50
2019-05-07T01:35:05.135Z,4.50
2019-05-07T01:36:04.337Z,4.60
2019-05-07T01:37:04.705Z,4.60
2019-05-07T01:38:05.034Z,4.60
2019-05-07T01:39:04.362Z,4.60
2019-05-07T01:40:04.503Z,4.60
2019-05-07T01:41:04.722Z,4.60
2019-05-07T01:42:04.745Z,4.60
2019-05-07T01:43:04.323Z,4.60
2019-05-07T01:44:04.963Z,4.60
2019-05-07T01:45:04.975Z,4.60
2019-05-07T01:46:05.030Z,4.70
2019-05-07T01:47:04.251Z,4.60
2019-05-07T01:48:04.761Z,4.70
2019-05-07T01:49:04.161Z,4.70
2019-05-07T01:50:04.424Z,4.70
2019-05-07T01:51:04.697Z,4.70
2019-05-07T01:52:05.192Z,4.70
2019-05-07T01:53:04.629Z,4.70
2019-05-07T01:54:04.700Z,4.70
2019-05-07T01:55:04.777Z,4.70
2019-05-07T01:56:04.170Z,4.70
2019-05-07T01:57:04.230Z,4.70
2019-05-07T01:58:04.765Z,4.70
2019-05-07T01:59:04.645Z,4.80
2019-05-07T02:00:04.666Z,4.80
2019-05-07T02:01:04.818Z,4.80
2019-05-07T02:02:05.087Z,4.80
2019-05-07T02:03:04.492Z,4.80
2019-05-07T02:04:05.040Z,4.80
2019-05-07T02:05:05.081Z,4.80
2019-05-07T02:06:04.247Z,4.90
2019-05-07T02:07:04.694Z,4.80
2019-05-07T02:08:04.902Z,4.90
2019-05-07T02:09:04.857Z,4.90
2019-05-07T02:10:05.105Z,4.90
2019-05-07T02:11:04.631Z,4.90
2019-05-07T02:12:04.711Z,4.90
2019-05-07T02:13:04.274Z,4.90
2019-05-07T02:14:04.379Z,4.90
2019-05-07T02:15:05.121Z,4.90
2019-05-07T02:16:05.112Z,4.90
2019-05-07T02:17:04.384Z,5.00
2019-05-07T02:18:04.704Z,5.00
2019-05-07T02:19:04.990Z,5.00
2019-05-07T02:20:04.522Z,5.00
2019-05-07T02:21:04.433Z,5.00
2019-05-07T02:22:05.122Z,5.00
2019-05-07T02:23:04.145Z,5.00
2019-05-07T02:24:04.258Z,5.00
2019-05-07T02:25:04.311Z,5.00
2019-05-07T02:26:04.921Z,5.00
2019-05-07T02:27:04.935Z,5.00
2019-05-07T02:28:04.626Z,5.00
2019-05-07T02:29:04.990Z,5.00
2019-05-07T02:30:04.949Z,5.00
2019-05-07T02:31:04.346Z,5.10
2019-05-07T02:32:05.034Z,5.10
2019-05-07T02:33:04.749Z,5.10
2019-05-07T02:34:04.937Z,5.10
2019-05-07T02:35:05.110Z,5.10
2019-05-07T02:36:04.803Z,5.10
2019-05-07T02:37:04.788Z,5.10
2019-05-07T02:38:04.931Z,5.10
2019-05-07T02:39:04.459Z,5.10
2019-05-07T02:40:04.612Z,5.10
2019-05-07T02:41:04.612Z,5.10
2019-05-07T02:42:04.786Z,5.10
2019-05-07T02:43:04.420Z,5.10
2019-05-07T02:44:04.869Z,5.10
2019-05-07T02:45:04.524Z,5.10
2019-05-07T02:46:20.336Z,5.10
2019-05-07T02:47:04.347Z,5.10
2019-05-07T02:48:04.395Z,5.10
2019-05-07T02:49:05.139Z,5.10
2019-05-07T02:50:04.747Z,5.10
2019-05-07T02:51:04.325Z,5.10
2019-05-07T02:52:04.718Z,5.10
2019-05-07T02:53:05.089Z,5.10
2019-05-07T02:54:04.318Z,5.10
2019-05-07T02:55:04.657Z,5.10
2019-05-07T02:56:04.423Z,5.10
2019-05-07T02:57:05.016Z,5.10
2019-05-07T02:58:05.171Z,5.10
2019-05-07T02:59:04.364Z,5.10
2019-05-07T03:00:04.853Z,5.10
2019-05-07T03:01:05.259Z,5.10
2019-05-07T03:02:05.017Z,5.10
2019-05-07T03:03:05.108Z,5.10
2019-05-07T03:04:12.668Z,5.10
2019-05-07T03:05:05.096Z,5.10
2019-05-07T03:06:04.400Z,5.10
2019-05-07T03:07:04.658Z,5.10
2019-05-07T03:08:04.171Z,5.10
2019-05-07T03:09:04.386Z,5.10
2019-05-07T03:10:04.724Z,5.10
2019-05-07T03:11:04.862Z,5.10
2019-05-07T03:12:04.326Z,5.10
2019-05-07T03:13:04.767Z,5.10
2019-05-07T03:14:04.767Z,5.10
2019-05-07T03:15:04.938Z,5.10
2019-05-07T03:16:04.912Z,5.10
2019-05-07T03:17:04.348Z,5.10
2019-05-07T03:18:04.422Z,5.10
2019-05-07T03:19:04.683Z,5.10
2019-05-07T03:20:04.622Z,5.10
2019-05-07T03:21:04.336Z,5.10
2019-05-07T03:22:04.834Z,5.10
2019-05-07T03:23:04.963Z,5.10
2019-05-07T03:24:04.970Z,5.10
2019-05-07T03:25:04.841Z,5.10
2019-05-07T03:26:05.142Z,5.10
2019-05-07T03:27:05.039Z,5.10
2019-05-07T03:28:04.765Z,5.10
2019-05-07T03:29:04.887Z,5.10
2019-05-07T03:30:04.680Z,5.10
2019-05-07T03:31:06.025Z,5.10
2019-05-07T03:32:06.221Z,5.10
2019-05-07T03:33:06.860Z,5.10
2019-05-07T03:34:06.771Z,5.10
2019-05-07T03:35:06.988Z,5.10
2019-05-07T03:36:06.836Z,5.10
2019-05-07T03:37:06.052Z,5.10
2019-05-07T03:38:04.479Z,5.10
2019-05-07T03:39:04.447Z,5.10
2019-05-07T03:40:04.712Z,5.10
2019-05-07T03:41:04.367Z,5.10
2019-05-07T03:42:05.005Z,5.10
2019-05-07T03:43:05.895Z,5.10
2019-05-07T03:44:04.665Z,5.10
2019-05-07T03:45:05.010Z,5.10
2019-05-07T03:46:04.552Z,5.10
2019-05-07T03:47:06.339Z,5.10
2019-05-07T03:48:05.150Z,5.10
2019-05-07T03:49:04.269Z,5.10
2019-05-07T03:50:04.419Z,5.10
2019-05-07T03:51:04.643Z,5.10
2019-05-07T03:52:04.854Z,5.10
2019-05-07T03:53:04.316Z,5.10
2019-05-07T03:54:04.459Z,5.00
2019-05-07T03:55:04.633Z,5.00
2019-05-07T03:56:04.754Z,5.00
2019-05-07T03:57:10.609Z,5.00
2019-05-07T03:58:05.194Z,5.00
2019-05-07T03:59:04.808Z,5.00
2019-05-07T04:00:05.190Z,5.00
2019-05-07T04:01:04.821Z,5.00
2019-05-07T04:02:04.996Z,5.00
2019-05-07T04:03:05.156Z,5.00
2019-05-07T04:04:04.873Z,5.00
2019-05-07T04:05:04.591Z,5.00
2019-05-07T04:06:04.732Z,5.00
2019-05-07T04:07:04.984Z,5.00
2019-05-07T04:08:04.231Z,5.00
2019-05-07T04:09:04.281Z,5.00
2019-05-07T04:10:04.744Z,5.00
2019-05-07T04:11:05.134Z,5.00
2019-05-07T04:12:13.089Z,5.10
2019-05-07T04:13:05.118Z,5.10
2019-05-07T04:14:04.617Z,5.10
2019-05-07T04:15:04.704Z,5.10
2019-05-07T04:16:04.663Z,5.10
2019-05-07T04:18:05.126Z,5.10
2019-05-07T04:19:04.650Z,5.10
2019-05-07T04:20:05.262Z,5.10
2019-05-07T04:21:06.110Z,5.10
2019-05-07T04:22:04.702Z,5.10
2019-05-07T04:23:04.845Z,5.10
2019-05-07T04:24:05.133Z,5.10
2019-05-07T04:25:05.347Z,5.10
2019-05-07T04:26:05.064Z,5.10
2019-05-07T04:27:05.141Z,5.10
2019-05-07T04:28:04.373Z,5.10
2019-05-07T04:29:05.887Z,5.10
2019-05-07T04:30:05.063Z,5.10
2019-05-07T04:31:04.241Z,5.10
2019-05-07T04:32:04.662Z,5.10
2019-05-07T04:33:04.942Z,5.10
2019-05-07T04:34:04.940Z,5.10
2019-05-07T04:35:04.441Z,5.10
2019-05-07T04:36:04.393Z,5.10
2019-05-07T04:37:04.590Z,5.10
2019-05-07T04:38:06.809Z,5.10
2019-05-07T04:39:04.723Z,5.10
2019-05-07T04:40:04.961Z,5.10
2019-05-07T04:41:04.389Z,5.10
2019-05-07T04:42:04.430Z,5.10
2019-05-07T04:43:04.833Z,5.10
2019-05-07T04:44:04.106Z,5.10
2019-05-07T04:45:04.796Z,5.10
2019-05-07T04:46:09.149Z,5.10
2019-05-07T04:47:04.994Z,5.10
2019-05-07T04:48:05.079Z,5.20
2019-05-07T04:49:04.659Z,5.20
2019-05-07T04:50:04.837Z,5.20
2019-05-07T04:51:04.930Z,5.20
2019-05-07T04:52:04.322Z,5.20
2019-05-07T04:53:04.351Z,5.20
2019-05-07T04:54:04.671Z,5.20
2019-05-07T04:55:04.979Z,5.20
2019-05-07T04:56:05.015Z,5.30
2019-05-07T04:57:05.013Z,5.30
2019-05-07T04:58:08.812Z,5.30
2019-05-07T04:59:05.173Z,5.30
2019-05-07T05:00:04.632Z,5.30
2019-05-07T05:01:04.930Z,5.30
2019-05-07T05:02:05.028Z,5.30
2019-05-07T05:03:04.949Z,5.30
2019-05-07T05:04:20.374Z,5.30
2019-05-07T05:05:04.949Z,5.30
2019-05-07T05:06:05.004Z,5.40
2019-05-07T05:07:04.916Z,5.40
2019-05-07T05:08:04.177Z,5.40
2019-05-07T05:09:04.244Z,5.40
2019-05-07T05:10:04.395Z,5.40
2019-05-07T05:11:04.487Z,5.40
2019-05-07T05:12:04.154Z,5.40
2019-05-07T05:13:04.239Z,5.50
2019-05-07T05:14:07.674Z,5.50
2019-05-07T05:15:04.495Z,5.50
2019-05-07T05:16:04.963Z,5.50
2019-05-07T05:17:04.388Z,5.50
2019-05-07T05:18:06.014Z,5.60
2019-05-07T05:19:04.385Z,5.60
2019-05-07T05:20:09.896Z,5.60
2019-05-07T05:21:04.284Z,5.60
2019-05-07T05:22:04.572Z,5.70
2019-05-07T05:23:04.730Z,5.70
2019-05-07T05:24:04.835Z,5.70
2019-05-07T05:25:04.838Z,5.70
2019-05-07T05:26:04.777Z,5.80
2019-05-07T05:27:04.289Z,5.80
2019-05-07T05:28:06.213Z,5.80
2019-05-07T05:29:04.688Z,5.90
2019-05-07T05:30:04.759Z,5.90
2019-05-07T05:31:04.768Z,5.90
2019-05-07T05:32:04.359Z,5.90
2019-05-07T05:33:04.738Z,6.00
2019-05-07T05:34:05.083Z,6.00
2019-05-07T05:35:04.172Z,6.00
2019-05-07T05:36:04.333Z,6.10
2019-05-07T05:37:04.780Z,6.10
2019-05-07T05:38:04.376Z,6.10
2019-05-07T05:39:04.886Z,6.20
2019-05-07T05:40:08.112Z,6.20
2019-05-07T05:41:04.390Z,6.20
2019-05-07T05:42:04.437Z,6.20
2019-05-07T05:43:04.631Z,6.30
2019-05-07T05:44:04.914Z,6.30
2019-05-07T05:45:04.982Z,6.30
2019-05-07T05:46:04.972Z,6.40
2019-05-07T05:47:04.960Z,6.40
2019-05-07T05:48:07.980Z,6.40
2019-05-07T05:49:04.968Z,6.50
2019-05-07T05:50:04.932Z,6.50
2019-05-07T05:51:05.067Z,6.50
2019-05-07T05:52:04.978Z,6.60
2019-05-07T05:53:04.348Z,6.60
2019-05-07T05:54:04.430Z,6.60
2019-05-07T05:55:04.424Z,6.70
2019-05-07T05:56:04.277Z,6.70
2019-05-07T05:57:04.263Z,6.80
2019-05-07T05:58:04.644Z,6.80
2019-05-07T05:59:04.802Z,6.80
2019-05-07T06:00:04.121Z,6.90
2019-05-07T06:01:04.201Z,6.90
2019-05-07T06:02:06.452Z,7.00
2019-05-07T06:03:04.194Z,7.00
2019-05-07T06:04:04.847Z,7.00
2019-05-07T06:05:04.837Z,7.10
2019-05-07T06:06:04.882Z,7.10
2019-05-07T06:07:10.738Z,7.20
2019-05-07T06:08:04.889Z,7.20
2019-05-07T06:09:04.859Z,7.30
2019-05-07T06:10:04.383Z,7.30
2019-05-07T06:11:04.349Z,7.30
2019-05-07T06:12:04.307Z,7.40
2019-05-07T06:13:04.372Z,7.40
2019-05-07T06:14:04.418Z,7.50
2019-05-07T06:15:04.302Z,7.50
2019-05-07T06:16:04.675Z,7.60
2019-05-07T06:17:04.903Z,7.60
2019-05-07T06:18:17.852Z,7.60
2019-05-07T06:19:05.025Z,7.60
2019-05-07T06:20:04.594Z,7.60
2019-05-07T06:21:04.620Z,7.70
2019-05-07T06:22:04.851Z,7.70
2019-05-07T06:23:04.875Z,7.70
2019-05-07T06:24:04.254Z,7.70
2019-05-07T06:25:04.334Z,7.70
2019-05-07T06:26:05.224Z,7.70
2019-05-07T06:27:04.950Z,7.80
2019-05-07T06:28:04.897Z,7.80
2019-05-07T06:29:04.797Z,7.90
2019-05-07T06:30:05.103Z,8.00
2019-05-07T06:31:04.955Z,8.10
2019-05-07T06:32:05.019Z,8.20
2019-05-07T06:33:04.680Z,8.30
2019-05-07T06:34:04.127Z,8.50
2019-05-07T06:35:04.580Z,8.60
2019-05-07T06:36:04.881Z,8.60
2019-05-07T06:37:04.967Z,8.70
2019-05-07T06:38:04.242Z,8.80
2019-05-07T06:39:04.473Z,8.90
2019-05-07T06:40:05.096Z,9.00
2019-05-07T06:41:05.202Z,9.00
2019-05-07T06:42:05.135Z,9.00
2019-05-07T06:43:05.096Z,9.10
2019-05-07T06:44:04.246Z,9.10
2019-05-07T06:45:04.707Z,9.10
2019-05-07T06:46:04.932Z,9.10
2019-05-07T06:47:05.023Z,9.00
2019-05-07T06:48:04.428Z,9.00
2019-05-07T06:49:04.834Z,9.00
2019-05-07T06:50:05.083Z,9.00
2019-05-07T06:51:04.947Z,9.00
2019-05-07T06:52:04.936Z,9.00
2019-05-07T06:53:05.054Z,9.00
2019-05-07T06:54:04.933Z,9.00
2019-05-07T06:55:05.200Z,9.00
2019-05-07T06:56:04.129Z,9.00
2019-05-07T06:57:04.644Z,9.00
2019-05-07T06:58:04.867Z,9.00
2019-05-07T06:59:04.818Z,9.00
2019-05-07T07:00:04.838Z,9.00
2019-05-07T07:01:04.684Z,9.00
2019-05-07T07:02:05.732Z,9.00
2019-05-07T07:03:04.460Z,9.00
2019-05-07T07:04:04.117Z,9.00
2019-05-07T07:05:04.952Z,9.00
2019-05-07T07:06:05.020Z,9.00
2019-05-07T07:07:04.553Z,9.00
2019-05-07T07:08:05.016Z,9.00
2019-05-07T07:09:04.953Z,9.00
2019-05-07T07:10:04.524Z,9.00
2019-05-07T07:11:04.411Z,9.00
2019-05-07T07:12:04.446Z,9.00
2019-05-07T07:13:04.426Z,9.00
2019-05-07T07:14:04.716Z,9.00
2019-05-07T07:15:04.125Z,9.10
2019-05-07T07:16:04.306Z,9.10
2019-05-07T07:17:04.687Z,9.10
2019-05-07T07:18:05.010Z,9.10
2019-05-07T07:19:05.047Z,9.10
2019-05-07T07:20:04.377Z,9.10
2019-05-07T07:21:04.523Z,9.10
2019-05-07T07:22:04.516Z,9.10
2019-05-07T07:23:04.571Z,9.10
2019-05-07T07:24:04.239Z,9.10
2019-05-07T07:25:06.386Z,9.10
2019-05-07T07:26:04.290Z,9.10
2019-05-07T07:27:04.334Z,9.10
2019-05-07T07:28:04.387Z,9.10
2019-05-07T07:29:04.291Z,9.10
2019-05-07T07:30:04.154Z,9.10
2019-05-07T07:31:04.099Z,9.10
2019-05-07T07:32:04.172Z,9.10
2019-05-07T07:33:04.316Z,9.10
2019-05-07T07:34:04.831Z,9.10
2019-05-07T07:35:04.781Z,9.10
2019-05-07T07:36:04.250Z,9.10
2019-05-07T07:37:08.587Z,9.10
2019-05-07T07:38:04.618Z,9.00
2019-05-07T07:39:05.101Z,9.00
2019-05-07T07:40:04.140Z,9.00
2019-05-07T07:41:05.450Z,9.00
2019-05-07T07:42:05.010Z,9.00
2019-05-07T07:43:06.923Z,9.00
2019-05-07T07:44:04.784Z,8.90
2019-05-07T07:45:04.894Z,8.90
2019-05-07T07:46:04.977Z,8.90
2019-05-07T07:47:04.966Z,8.90
2019-05-07T07:48:04.100Z,8.90
2019-05-07T07:49:10.869Z,8.90
2019-05-07T07:50:04.208Z,8.90
2019-05-07T07:51:04.235Z,8.80
2019-05-07T07:52:04.548Z,8.80
2019-05-07T07:53:04.559Z,8.80
2019-05-07T07:54:04.631Z,8.80
2019-05-07T07:55:04.583Z,8.80
2019-05-07T07:56:04.664Z,8.80
2019-05-07T07:57:04.994Z,8.80
2019-05-07T07:58:05.132Z,8.70
2019-05-07T07:59:04.171Z,8.70
2019-05-07T08:00:05.032Z,8.70
2019-05-07T08:01:04.168Z,8.70
2019-05-07T08:02:04.418Z,8.60
2019-05-07T08:03:04.285Z,8.60
2019-05-07T08:04:04.472Z,8.60
2019-05-07T08:05:04.986Z,8.60
2019-05-07T08:06:05.068Z,8.60
2019-05-07T08:07:04.554Z,8.60
2019-05-07T08:08:04.639Z,8.60
2019-05-07T08:09:04.996Z,8.50
2019-05-07T08:10:04.431Z,8.50
2019-05-07T08:11:04.618Z,8.50
2019-05-07T08:12:04.716Z,8.50
2019-05-07T08:13:05.043Z,8.50
2019-05-07T08:14:04.438Z,8.50
2019-05-07T08:15:16.610Z,8.50
2019-05-07T08:16:04.414Z,8.50
2019-05-07T08:17:05.028Z,8.50
2019-05-07T08:18:05.075Z,8.50
2019-05-07T08:19:18.245Z,8.50
2019-05-07T08:20:05.134Z,8.50
2019-05-07T08:21:07.828Z,8.50
2019-05-07T08:22:04.671Z,8.50
2019-05-07T08:23:05.063Z,8.50
2019-05-07T08:24:05.099Z,8.50
2019-05-07T08:25:04.161Z,8.50
2019-05-07T08:26:04.781Z,8.50
2019-05-07T08:27:04.718Z,8.50
2019-05-07T08:28:04.090Z,8.50
2019-05-07T08:29:04.351Z,8.50
2019-05-07T08:30:04.867Z,8.50
2019-05-07T08:31:04.931Z,8.60
2019-05-07T08:32:04.333Z,8.60
2019-05-07T08:33:04.796Z,8.60
2019-05-07T08:34:04.464Z,8.60
2019-05-07T08:35:04.702Z,8.60
2019-05-07T08:36:05.046Z,8.60
2019-05-07T08:37:04.283Z,8.60
2019-05-07T08:38:04.456Z,8.60
2019-05-07T08:39:05.008Z,8.70
2019-05-07T08:40:04.350Z,8.70
2019-05-07T08:41:04.610Z,8.70
2019-05-07T08:42:04.765Z,8.80
2019-05-07T08:43:04.102Z,8.80
2019-05-07T08:44:11.394Z,8.90
2019-05-07T08:45:04.653Z,8.90
2019-05-07T08:46:04.750Z,9.00
2019-05-07T08:47:04.661Z,9.10
2019-05-07T08:48:04.885Z,9.10
2019-05-07T08:49:04.989Z,9.20
2019-05-07T08:50:04.430Z,9.30
2019-05-07T08:51:04.966Z,9.30
2019-05-07T08:52:04.350Z,9.40
2019-05-07T08:53:04.882Z,9.50
2019-05-07T08:54:05.015Z,9.60
2019-05-07T08:55:04.962Z,9.70
2019-05-07T08:56:04.124Z,9.80
2019-05-07T08:57:04.545Z,9.90
2019-05-07T08:58:05.117Z,10.00
2019-05-07T08:59:04.633Z,10.20
2019-05-07T09:00:05.055Z,10.30
2019-05-07T09:01:05.035Z,10.40
2019-05-07T09:02:15.129Z,10.50
2019-05-07T09:03:04.396Z,10.60
2019-05-07T09:04:04.117Z,10.70
2019-05-07T09:05:04.418Z,10.80
2019-05-07T09:06:04.367Z,10.90
2019-05-07T09:07:04.274Z,11.00
2019-05-07T09:08:04.826Z,11.10
2019-05-07T09:09:04.724Z,11.20
2019-05-07T09:10:04.770Z,11.30
2019-05-07T09:11:04.768Z,11.50
2019-05-07T09:12:04.852Z,11.60
2019-05-07T09:13:04.363Z,11.70
2019-05-07T09:14:05.485Z,11.70
2019-05-07T09:15:05.088Z,11.80
2019-05-07T09:16:04.424Z,11.90
2019-05-07T09:17:04.856Z,11.90
2019-05-07T09:18:04.809Z,11.90
2019-05-07T09:19:04.328Z,11.90
2019-05-07T09:20:04.362Z,11.80
2019-05-07T09:21:04.656Z,11.70
2019-05-07T09:22:04.841Z,11.70
2019-05-07T09:23:04.906Z,11.60
2019-05-07T09:24:04.896Z,11.60
2019-05-07T09:25:04.843Z,11.60
2019-05-07T09:26:05.097Z,11.50
2019-05-07T09:27:04.569Z,11.40
2019-05-07T09:28:04.616Z,11.40
2019-05-07T09:29:05.102Z,11.40
2019-05-07T09:30:04.529Z,11.30
2019-05-07T09:31:04.598Z,11.30
2019-05-07T09:32:04.665Z,11.20
2019-05-07T09:33:04.923Z,11.20
2019-05-07T09:34:04.462Z,11.20
2019-05-07T09:35:04.930Z,11.20
2019-05-07T09:36:05.087Z,11.20
2019-05-07T09:37:04.545Z,11.20
2019-05-07T09:38:04.930Z,11.20
2019-05-07T09:39:04.871Z,11.20
2019-05-07T09:40:04.460Z,11.20
2019-05-07T09:41:04.891Z,11.20
2019-05-07T09:42:04.872Z,11.20
2019-05-07T09:43:04.323Z,11.20
2019-05-07T09:44:04.876Z,11.20
2019-05-07T09:45:05.036Z,11.20
2019-05-07T09:46:05.094Z,11.20
2019-05-07T09:47:04.970Z,11.20
2019-05-07T09:48:04.962Z,11.20
2019-05-07T09:49:04.378Z,11.30
2019-05-07T09:50:07.703Z,11.30
2019-05-07T09:51:04.283Z,11.30
2019-05-07T09:52:06.025Z,11.20
2019-05-07T09:53:04.406Z,11.20
2019-05-07T09:54:04.419Z,11.20
2019-05-07T09:55:14.004Z,11.20
2019-05-07T09:56:04.951Z,11.20
2019-05-07T09:57:04.304Z,11.20
2019-05-07T09:58:04.200Z,11.20
2019-05-07T09:59:04.817Z,11.20
2019-05-07T10:00:04.783Z,11.20
2019-05-07T10:01:04.976Z,11.20
2019-05-07T10:02:04.898Z,11.10
2019-05-07T10:03:04.863Z,11.10
2019-05-07T10:04:04.894Z,11.10
2019-05-07T10:05:04.405Z,11.10
2019-05-07T10:06:04.397Z,11.00
2019-05-07T10:07:04.465Z,11.00
2019-05-07T10:08:05.110Z,11.00
2019-05-07T10:09:04.391Z,11.00
2019-05-07T10:10:04.735Z,11.00
2019-05-07T10:11:04.328Z,11.00
2019-05-07T10:12:04.665Z,11.10
2019-05-07T10:13:04.766Z,11.10
2019-05-07T10:14:04.382Z,11.10
2019-05-07T10:15:04.787Z,11.20
2019-05-07T10:16:07.481Z,11.20
2019-05-07T10:17:04.470Z,11.20
2019-05-07T10:18:04.560Z,11.30
2019-05-07T10:19:04.965Z,11.30
2019-05-07T10:20:17.316Z,11.40
2019-05-07T10:21:04.876Z,11.40
2019-05-07T10:22:04.772Z,11.40
2019-05-07T10:23:04.320Z,11.40
2019-05-07T10:24:04.304Z,11.40
2019-05-07T10:25:04.797Z,11.40
2019-05-07T10:26:04.510Z,11.40
2019-05-07T10:27:04.409Z,11.50
2019-05-07T10:28:04.674Z,11.50
2019-05-07T10:29:04.988Z,11.50
2019-05-07T10:30:04.393Z,11.50
2019-05-07T10:31:04.448Z,11.50
2019-05-07T10:32:04.582Z,11.50
2019-05-07T10:33:04.289Z,11.50
2019-05-07T10:34:04.648Z,11.50
2019-05-07T10:35:05.057Z,11.40
2019-05-07T10:36:04.921Z,11.40
2019-05-07T10:37:04.658Z,11.40
2019-05-07T10:38:04.880Z,11.30
2019-05-07T10:39:05.089Z,11.30
2019-05-07T10:40:04.567Z,11.30
2019-05-07T10:41:04.784Z,11.30
2019-05-07T10:42:04.883Z,11.30
2019-05-07T10:43:05.014Z,11.30
2019-05-07T10:44:04.307Z,11.30
2019-05-07T10:45:04.546Z,11.30
2019-05-07T10:46:04.619Z,11.30
2019-05-07T10:47:05.289Z,11.30
2019-05-07T10:48:06.376Z,11.30
2019-05-07T10:49:04.603Z,11.40
2019-05-07T10:50:04.870Z,11.40
2019-05-07T10:51:05.171Z,11.40
2019-05-07T10:52:04.608Z,11.40
2019-05-07T10:53:04.819Z,11.40
2019-05-07T10:54:04.891Z,11.50
2019-05-07T10:55:05.278Z,11.50
2019-05-07T10:56:04.501Z,11.50
2019-05-07T10:57:04.553Z,11.50
2019-05-07T10:58:04.645Z,11.60
2019-05-07T10:59:04.861Z,11.60
2019-05-07T11:00:04.259Z,11.60
2019-05-07T11:01:04.691Z,11.70
2019-05-07T11:02:04.917Z,11.70
2019-05-07T11:03:05.279Z,11.70
2019-05-07T11:04:04.399Z,11.70
2019-05-07T11:05:05.119Z,11.70
2019-05-07T11:06:04.665Z,11.70
2019-05-07T11:07:04.923Z,11.80
2019-05-07T11:08:04.381Z,11.80
2019-05-07T11:09:04.727Z,11.80
2019-05-07T11:10:05.073Z,11.80
2019-05-07T11:11:05.217Z,11.80
2019-05-07T11:12:04.378Z,11.80
2019-05-07T11:13:04.388Z,11.90
2019-05-07T11:14:04.490Z,12.00
2019-05-07T11:15:04.536Z,12.00
2019-05-07T11:16:04.312Z,12.00
2019-05-07T11:17:04.825Z,12.10
2019-05-07T11:18:04.351Z,12.10
2019-05-07T11:19:04.567Z,12.20
2019-05-07T11:20:05.166Z,12.30
2019-05-07T11:21:04.302Z,12.30
2019-05-07T11:22:04.499Z,12.40
2019-05-07T11:23:04.529Z,12.50
2019-05-07T11:24:04.934Z,12.50
2019-05-07T11:25:04.684Z,12.60
2019-05-07T11:26:04.550Z,12.70
2019-05-07T11:27:04.953Z,12.70
2019-05-07T11:28:04.760Z,12.80
2019-05-07T11:29:04.968Z,12.80
2019-05-07T11:30:04.997Z,12.90
2019-05-07T11:31:04.360Z,12.90
2019-05-07T11:32:04.705Z,12.90
2019-05-07T11:33:04.975Z,13.00
2019-05-07T11:34:05.048Z,13.00
2019-05-07T11:35:04.333Z,13.00
2019-05-07T11:36:04.319Z,13.00
2019-05-07T11:37:04.373Z,13.00
2019-05-07T11:38:17.617Z,13.00
2019-05-07T11:39:05.086Z,13.00
2019-05-07T11:40:04.773Z,13.00
2019-05-07T11:41:04.983Z,13.10
2019-05-07T11:42:04.536Z,13.10
2019-05-07T11:43:04.691Z,13.10
2019-05-07T11:44:04.512Z,13.10
2019-05-07T11:45:04.503Z,13.00
2019-05-07T11:46:04.688Z,13.10
2019-05-07T11:47:05.189Z,13.00
2019-05-07T11:48:04.963Z,13.00
2019-05-07T11:49:04.371Z,13.00
2019-05-07T11:50:05.049Z,13.00
2019-05-07T11:51:05.064Z,13.00
2019-05-07T11:52:04.425Z,13.00
2019-05-07T11:53:04.344Z,13.00
2019-05-07T11:54:05.150Z,13.00
2019-05-07T11:55:04.455Z,12.90
2019-05-07T11:56:04.790Z,13.00
2019-05-07T11:57:04.578Z,13.00
2019-05-07T11:58:04.562Z,13.00
2019-05-07T11:59:05.158Z,12.90
2019-05-07T12:00:04.691Z,13.00
2019-05-07T12:01:05.251Z,13.00
2019-05-07T12:02:04.763Z,13.00
2019-05-07T12:03:04.312Z,13.00
2019-05-07T12:04:04.354Z,13.00
2019-05-07T12:05:05.174Z,13.10
2019-05-07T12:06:04.561Z,13.10
2019-05-07T12:07:04.790Z,13.10
2019-05-07T12:08:04.902Z,13.10
2019-05-07T12:09:05.091Z,13.10
2019-05-07T12:10:05.047Z,13.20
2019-05-07T12:11:04.831Z,13.20
2019-05-07T12:12:05.100Z,13.20
2019-05-07T12:13:05.071Z,13.30
2019-05-07T12:14:04.296Z,13.30
2019-05-07T12:15:04.434Z,13.30
2019-05-07T12:16:05.150Z,13.30
2019-05-07T12:17:04.326Z,13.30
2019-05-07T12:18:04.722Z,13.30
2019-05-07T12:19:05.079Z,13.30
2019-05-07T12:20:04.688Z,13.30
2019-05-07T12:21:17.364Z,13.30
2019-05-07T12:22:04.955Z,13.30
2019-05-07T12:23:04.610Z,13.30
2019-05-07T12:24:05.160Z,13.30
2019-05-07T12:25:04.643Z,13.30
2019-05-07T12:26:04.803Z,13.30
2019-05-07T12:27:04.766Z,13.20
2019-05-07T12:28:04.272Z,13.20
2019-05-07T12:29:05.073Z,13.20
2019-05-07T12:30:04.395Z,13.30
2019-05-07T12:31:04.669Z,13.20
2019-05-07T12:32:04.899Z,13.20
2019-05-07T12:33:04.599Z,13.20
2019-05-07T12:34:04.529Z,13.20
2019-05-07T12:35:04.684Z,13.20
2019-05-07T12:36:04.820Z,13.10
2019-05-07T12:37:04.905Z,13.10
2019-05-07T12:38:05.200Z,13.20
2019-05-07T12:39:04.302Z,13.20
2019-05-07T12:40:04.520Z,13.20
2019-05-07T12:41:04.861Z,13.20
2019-05-07T12:42:04.294Z,13.20
2019-05-07T12:43:04.470Z,13.20
2019-05-07T12:44:04.178Z,13.20
2019-05-07T12:45:04.293Z,13.30
2019-05-07T12:46:04.861Z,13.30
2019-05-07T12:47:04.573Z,13.30
2019-05-07T12:48:04.821Z,13.40
2019-05-07T12:49:04.848Z,13.40
2019-05-07T12:50:04.224Z,13.40
2019-05-07T12:51:04.789Z,13.40
2019-05-07T12:52:05.051Z,13.40
2019-05-07T12:53:04.361Z,13.40
2019-05-07T12:54:05.294Z,13.40
2019-05-07T12:55:04.484Z,13.50
2019-05-07T12:56:05.116Z,13.50
2019-05-07T12:57:04.735Z,13.50
2019-05-07T12:58:04.603Z,13.50
2019-05-07T12:59:04.647Z,13.60
2019-05-07T13:00:04.794Z,13.60
2019-05-07T13:01:09.392Z,13.50
2019-05-07T13:02:16.663Z,13.60
2019-05-07T13:03:04.673Z,13.50
2019-05-07T13:04:04.366Z,13.40
2019-05-07T13:05:04.546Z,13.40
2019-05-07T13:06:04.810Z,13.40
2019-05-07T13:07:04.910Z,13.40
2019-05-07T13:08:04.671Z,13.30
2019-05-07T13:09:04.781Z,13.30
2019-05-07T13:10:04.328Z,13.30
2019-05-07T13:11:04.653Z,13.30